Time;durP1;ratioP1;P1;durP2;ratioP2;P2;SDS_P1;SDS_P2;PMS_P1;PMS_P2;Temp;Humidity;BMP_temperature;BMP_pressure;BME280_temperature;BME280_humidity;BME280_pressure;Samples;Min_cycle;Max_cycle;Signal;HPM_P1;HPM_P2
2023/05/25 00:00:17;;;;;;;20.2;14.1;;;;;;;;;;;;;
2023/05/25 00:02:45;;;;;;;24.2;14.7;;;;;;;;;;;;;
2023/05/25 00:05:08;;;;;;;20;14.4;;;;;;;;;;;;;
2023/05/25 00:07:34;;;;;;;21;13.9;;;;;;;;;;;;;
2023/05/25 00:10:00;;;;;;;20.7;15.1;;;;;;;;;;;;;
2023/05/25 00:12:25;;;;;;;22.2;14.4;;;;;;;;;;;;;
2023/05/25 00:14:50;;;;;;;23.4;14.6;;;;;;;;;;;;;
2023/05/25 00:17:17;;;;;;;24.1;14.9;;;;;;;;;;;;;
2023/05/25 00:19:42;;;;;;;25.5;15.1;;;;;;;;;;;;;
2023/05/25 00:22:09;;;;;;;19;14.3;;;;;;;;;;;;;
2023/05/25 00:24:33;;;;;;;24;14.8;;;;;;;;;;;;;
2023/05/25 00:26:58;;;;;;;23;15.2;;;;;;;;;;;;;
2023/05/25 00:29:24;;;;;;;23.5;15.1;;;;;;;;;;;;;
2023/05/25 00:31:50;;;;;;;23.9;15.6;;;;;;;;;;;;;
2023/05/25 00:34:15;;;;;;;26;15.5;;;;;;;;;;;;;
2023/05/25 00:36:42;;;;;;;22.3;15.2;;;;;;;;;;;;;
2023/05/25 00:39:08;;;;;;;23.3;15;;;;;;;;;;;;;
2023/05/25 00:41:36;;;;;;;26.9;15.1;;;;;;;;;;;;;
2023/05/25 00:43:59;;;;;;;23;14.5;;;;;;;;;;;;;
2023/05/25 00:46:25;;;;;;;22.5;14.9;;;;;;;;;;;;;
2023/05/25 00:48:50;;;;;;;26.4;16;;;;;;;;;;;;;
2023/05/25 00:51:16;;;;;;;23.4;15.7;;;;;;;;;;;;;
2023/05/25 00:53:41;;;;;;;26.5;15.3;;;;;;;;;;;;;
2023/05/25 00:56:06;;;;;;;23.5;15.1;;;;;;;;;;;;;
2023/05/25 00:58:31;;;;;;;23.8;15.9;;;;;;;;;;;;;
2023/05/25 01:00:56;;;;;;;24.7;15.5;;;;;;;;;;;;;
2023/05/25 01:03:26;;;;;;;23.5;15.3;;;;;;;;;;;;;
2023/05/25 01:05:46;;;;;;;22.7;15.3;;;;;;;;;;;;;
2023/05/25 01:08:12;;;;;;;24.4;15.9;;;;;;;;;;;;;
2023/05/25 01:10:37;;;;;;;22.5;15.1;;;;;;;;;;;;;
2023/05/25 01:13:04;;;;;;;24;15.9;;;;;;;;;;;;;
2023/05/25 01:15:29;;;;;;;22.5;14.9;;;;;;;;;;;;;
2023/05/25 01:17:58;;;;;;;24.3;16.2;;;;;;;;;;;;;
2023/05/25 01:20:20;;;;;;;22.8;16;;;;;;;;;;;;;
2023/05/25 01:22:46;;;;;;;23.6;15.4;;;;;;;;;;;;;
2023/05/25 01:25:12;;;;;;;24.7;15.7;;;;;;;;;;;;;
2023/05/25 01:27:38;;;;;;;26.3;16.3;;;;;;;;;;;;;
2023/05/25 01:30:03;;;;;;;23.7;16;;;;;;;;;;;;;
2023/05/25 01:32:31;;;;;;;22.9;15.6;;;;;;;;;;;;;
2023/05/25 01:34:55;;;;;;;21.5;15.4;;;;;;;;;;;;;
2023/05/25 01:37:23;;;;;;;21.4;15.2;;;;;;;;;;;;;
2023/05/25 01:39:46;;;;;;;22.9;15.9;;;;;;;;;;;;;
2023/05/25 01:42:11;;;;;;;25.2;15.6;;;;;;;;;;;;;
2023/05/25 01:44:36;;;;;;;25.2;16.9;;;;;;;;;;;;;
2023/05/25 01:47:02;;;;;;;23.9;15.9;;;;;;;;;;;;;
2023/05/25 01:49:27;;;;;;;24.6;15.6;;;;;;;;;;;;;
2023/05/25 01:51:54;;;;;;;26.5;15.6;;;;;;;;;;;;;
2023/05/25 01:54:18;;;;;;;25.5;15.9;;;;;;;;;;;;;
2023/05/25 01:56:45;;;;;;;24.4;15.8;;;;;;;;;;;;;
2023/05/25 01:59:09;;;;;;;27.1;16.2;;;;;;;;;;;;;
2023/05/25 02:01:36;;;;;;;25.3;16.6;;;;;;;;;;;;;
2023/05/25 02:04:01;;;;;;;27;17.1;;;;;;;;;;;;;
2023/05/25 02:06:27;;;;;;;28.9;16.3;;;;;;;;;;;;;
2023/05/25 02:08:52;;;;;;;26.6;17;;;;;;;;;;;;;
2023/05/25 02:11:19;;;;;;;24.7;16.1;;;;;;;;;;;;;
2023/05/25 02:13:44;;;;;;;27.8;16.2;;;;;;;;;;;;;
2023/05/25 02:16:09;;;;;;;27.8;16.7;;;;;;;;;;;;;
2023/05/25 02:18:35;;;;;;;30.6;18.1;;;;;;;;;;;;;
2023/05/25 02:21:00;;;;;;;27.5;18;;;;;;;;;;;;;
2023/05/25 02:23:25;;;;;;;27;17;;;;;;;;;;;;;
2023/05/25 02:25:50;;;;;;;28.4;17.4;;;;;;;;;;;;;
2023/05/25 02:28:15;;;;;;;25.4;16.7;;;;;;;;;;;;;
2023/05/25 02:30:40;;;;;;;22.1;16.3;;;;;;;;;;;;;
2023/05/25 02:33:05;;;;;;;26.9;16.7;;;;;;;;;;;;;
2023/05/25 02:35:32;;;;;;;25.8;17.1;;;;;;;;;;;;;
2023/05/25 02:37:57;;;;;;;28.5;17.6;;;;;;;;;;;;;
2023/05/25 02:40:23;;;;;;;24;17;;;;;;;;;;;;;
2023/05/25 02:42:48;;;;;;;26.7;17.1;;;;;;;;;;;;;
2023/05/25 02:45:16;;;;;;;24;15.9;;;;;;;;;;;;;
2023/05/25 02:47:41;;;;;;;23.2;17.5;;;;;;;;;;;;;
2023/05/25 02:50:06;;;;;;;24.8;17.1;;;;;;;;;;;;;
2023/05/25 02:52:33;;;;;;;25.3;17.1;;;;;;;;;;;;;
2023/05/25 02:54:58;;;;;;;25.5;17.1;;;;;;;;;;;;;
2023/05/25 02:57:23;;;;;;;26.9;17.5;;;;;;;;;;;;;
2023/05/25 02:59:51;;;;;;;25.6;16.6;;;;;;;;;;;;;
2023/05/25 03:02:17;;;;;;;29.7;18.3;;;;;;;;;;;;;
2023/05/25 03:04:42;;;;;;;27.3;17.7;;;;;;;;;;;;;
2023/05/25 03:07:07;;;;;;;29.1;17.8;;;;;;;;;;;;;
2023/05/25 03:09:33;;;;;;;30.3;17.8;;;;;;;;;;;;;
2023/05/25 03:11:58;;;;;;;25.8;17.6;;;;;;;;;;;;;
2023/05/25 03:14:25;;;;;;;29.8;18;;;;;;;;;;;;;
2023/05/25 03:16:50;;;;;;;28.5;17.8;;;;;;;;;;;;;
2023/05/25 03:19:17;;;;;;;27.9;17.2;;;;;;;;;;;;;
2023/05/25 03:21:40;;;;;;;25.7;17;;;;;;;;;;;;;
2023/05/25 03:24:06;;;;;;;25.2;17.6;;;;;;;;;;;;;
2023/05/25 03:26:31;;;;;;;24.7;16.7;;;;;;;;;;;;;
2023/05/25 03:28:55;;;;;;;22;16.7;;;;;;;;;;;;;
2023/05/25 03:31:21;;;;;;;24.4;16.7;;;;;;;;;;;;;
2023/05/25 03:33:46;;;;;;;22.4;16.3;;;;;;;;;;;;;
2023/05/25 03:36:12;;;;;;;27;17.3;;;;;;;;;;;;;
2023/05/25 03:38:37;;;;;;;26.7;17;;;;;;;;;;;;;
2023/05/25 03:41:02;;;;;;;28.1;17.6;;;;;;;;;;;;;
2023/05/25 03:43:27;;;;;;;25.7;17.2;;;;;;;;;;;;;
2023/05/25 03:45:52;;;;;;;24.6;17.6;;;;;;;;;;;;;
2023/05/25 03:48:17;;;;;;;25.7;17;;;;;;;;;;;;;
2023/05/25 03:50:42;;;;;;;26.6;17.4;;;;;;;;;;;;;
2023/05/25 03:53:08;;;;;;;24.8;16.7;;;;;;;;;;;;;
2023/05/25 03:55:32;;;;;;;24.1;17.2;;;;;;;;;;;;;
2023/05/25 03:57:58;;;;;;;27.8;18.1;;;;;;;;;;;;;
2023/05/25 04:02:37;;;;;;;29.1;18.3;;;;;;;11.76;93.32715;939.6961;;;;
2023/05/25 04:05:10;;;;;;;27.7;17.8;;;;;;;11.72;94.04199;939.7796;;;;
2023/05/25 04:07:44;;;;;;;29.5;18.1;;;;;;;11.73;93.81543;939.7829;;;;
2023/05/25 04:10:09;;;;;;;28.9;18.3;;;;;;;11.78;93.26367;939.7569;;;;
2023/05/25 04:12:41;;;;;;;28.9;18.5;;;;;;;11.84;93.16113;939.7906;;;;
2023/05/25 04:15:16;;;;;;;33.6;20.9;;;;;;;11.6;93.74023;939.8725;;;;
2023/05/25 04:17:46;;;;;;;33.4;20.5;;;;;;;11.67;94.52246;939.8343;;;;
2023/05/25 04:20:20;;;;;;;31;20.6;;;;;;;11.76;94.55176;939.8477;;;;
2023/05/25 04:22:50;;;;;;;32.9;21.5;;;;;;;11.68;94.30762;939.8606;;;;
2023/05/25 04:25:18;;;;;;;33;20;;;;;;;11.71;93.99316;939.8441;;;;
2023/05/25 04:27:45;;;;;;;34.6;21.3;;;;;;;11.72;94.06348;939.8928;;;;
2023/05/25 04:30:09;;;;;;;35.9;21.6;;;;;;;11.72;93.9375;939.9511;;;;
2023/05/25 04:32:37;;;;;;;26.9;18.6;;;;;;;11.74;94.0791;939.9863;;;;
2023/05/25 04:35:04;;;;;;;34;21.8;;;;;;;11.79;94.61719;939.9455;;;;
2023/05/25 04:37:35;;;;;;;29.5;20.5;;;;;;;11.91;94.07031;939.9324;;;;
2023/05/25 04:42:43;;;;;;;29;20.5;;;;;;;11.9;93.11719;939.9554;;;;
2023/05/25 04:45:16;;;;;;;32.8;20.9;;;;;;;11.93;93.18066;940.0042;;;;
2023/05/25 04:47:39;;;;;;;32.2;20;;;;;;;11.96;92.65039;939.9654;;;;
2023/05/25 04:50:01;;;;;;;31.7;19.6;;;;;;;12.02;92.40918;939.9741;;;;
2023/05/25 04:52:28;;;;;;;27.6;19.4;;;;;;;11.84;91.90332;939.9151;;;;
2023/05/25 04:54:53;;;;;;;28.3;19.7;;;;;;;11.96;92.43262;939.9813;;;;
2023/05/25 04:57:21;;;;;;;30.3;20.2;;;;;;;12.03;91.9668;939.9981;;;;
2023/05/25 04:59:45;;;;;;;30.2;20;;;;;;;12.12;91.63965;940.0536;;;;
2023/05/25 05:02:14;;;;;;;26.9;18.4;;;;;;;12.23;92.03125;940.022;;;;
2023/05/25 05:04:40;;;;;;;32;18.9;;;;;;;12.3;90.64844;940.0064;;;;
2023/05/25 05:07:08;;;;;;;25.8;17.9;;;;;;;12.06;90.36816;939.9543;;;;
2023/05/25 05:09:32;;;;;;;23.9;17.6;;;;;;;12.07;91.0459;940.0391;;;;
2023/05/25 05:12:00;;;;;;;27.1;17.6;;;;;;;12.13;91.12988;940.0634;;;;
2023/05/25 05:14:25;;;;;;;27.3;18.2;;;;;;;12.35;91.15039;940.0322;;;;
2023/05/25 05:16:53;;;;;;;25.8;17.2;;;;;;;12.22;90.11523;939.9844;;;;
2023/05/25 05:19:18;;;;;;;26.8;17.8;;;;;;;12.11;90.67773;939.9746;;;;
2023/05/25 05:21:46;;;;;;;32;18.2;;;;;;;12.22;90.89453;940.0234;;;;
2023/05/25 05:24:11;;;;;;;31.5;19;;;;;;;12.35;91.00195;940.0625;;;;
2023/05/25 05:26:38;;;;;;;25;17.6;;;;;;;12.31;90.60449;940.0344;;;;
2023/05/25 05:29:04;;;;;;;26.1;17.2;;;;;;;12.31;90.15723;940.0759;;;;
2023/05/25 05:31:31;;;;;;;26.9;16.9;;;;;;;12.23;90.86035;940.0627;;;;
2023/05/25 05:33:56;;;;;;;25.8;16.3;;;;;;;12.2;90.57031;940.0997;;;;
2023/05/25 05:36:22;;;;;;;25.1;16.6;;;;;;;12.34;90.23145;940.1272;;;;
2023/05/25 05:38:51;;;;;;;29.1;17;;;;;;;12.44;90.44922;940.0505;;;;
2023/05/25 05:41:16;;;;;;;30.1;16.8;;;;;;;12.71;90.41016;940.0264;;;;
2023/05/25 05:43:45;;;;;;;21.1;14.2;;;;;;;13;87.62402;939.8974;;;;
2023/05/25 05:46:11;;;;;;;20.9;15;;;;;;;13.25;87.00879;940.0028;;;;
2023/05/25 05:48:38;;;;;;;20.7;13.5;;;;;;;13.34;85.88867;939.9734;;;;
2023/05/25 05:51:03;;;;;;;17.7;12.9;;;;;;;13.28;84.98242;939.9389;;;;
2023/05/25 05:53:30;;;;;;;19.6;13;;;;;;;13.36;84.84668;940.0134;;;;
2023/05/25 05:55:57;;;;;;;17.6;12.6;;;;;;;13.35;84.50195;940.003;;;;
2023/05/25 05:58:20;;;;;;;16.7;12.7;;;;;;;13.19;84.78906;940.0457;;;;
2023/05/25 06:00:47;;;;;;;18.9;13.1;;;;;;;13.15;85.51855;940.002;;;;
2023/05/25 06:03:12;;;;;;;17.3;12.7;;;;;;;13.22;85.19922;940.0204;;;;
2023/05/25 06:05:40;;;;;;;17.8;12.2;;;;;;;13.4;84.28125;939.9983;;;;
2023/05/25 06:08:10;;;;;;;15.4;10.9;;;;;;;13.61;83.32031;939.9219;;;;
2023/05/25 06:14:23;;;;;;;15.3;10.8;;;;;;;14.29;80.84766;939.9833;;;;
2023/05/25 06:16:49;;;;;;;13;10;;;;;;;14.69;79.80273;939.9758;;;;
2023/05/25 06:19:18;;;;;;;15.6;10.6;;;;;;;14.72;78.63379;940.0399;;;;
2023/05/25 06:21:46;;;;;;;11.1;8.3;;;;;;;14.7;76.49609;939.947;;;;
2023/05/25 06:24:11;;;;;;;14.8;9.9;;;;;;;14.79;77.41113;940.0059;;;;
2023/05/25 06:26:38;;;;;;;13.1;9.1;;;;;;;15.01;77.00195;939.9515;;;;
2023/05/25 06:29:03;;;;;;;9.3;7.6;;;;;;;15.08;76.38965;939.9748;;;;
2023/05/25 06:31:31;;;;;;;11.6;8.3;;;;;;;15.36;76.10352;939.9678;;;;
2023/05/25 06:33:56;;;;;;;10.6;9.3;;;;;;;15.19;75.84473;939.9548;;;;
2023/05/25 06:36:21;;;;;;;12.2;8.3;;;;;;;15.57;76.43066;939.9908;;;;
2023/05/25 06:38:46;;;;;;;10.4;7.3;;;;;;;15.9;73.67773;939.9554;;;;
2023/05/25 06:41:13;;;;;;;10.6;7.4;;;;;;;17.06;71.9043;939.9461;;;;
2023/05/25 06:43:36;;;;;;;9.6;6.9;;;;;;;17.26;67.66895;939.988;;;;
2023/05/25 06:46:01;;;;;;;11.1;7.1;;;;;;;18.95;64.16992;939.9028;;;;
2023/05/25 06:48:30;;;;;;;10;5.7;;;;;;;20.23;59.34863;939.8132;;;;
2023/05/25 06:50:55;;;;;;;5.3;4.3;;;;;;;21.61;52.54297;939.8466;;;;
2023/05/25 06:53:20;;;;;;;5.5;4.2;;;;;;;21.07;54.61914;939.924;;;;
2023/05/25 06:55:48;;;;;;;4.1;3.5;;;;;;;21.28;52.28125;939.8384;;;;
2023/05/25 06:58:12;;;;;;;3.7;2.6;;;;;;;21.19;50.38574;939.8898;;;;
2023/05/25 07:00:40;;;;;;;3.3;2.6;;;;;;;22.26;50.25098;939.8322;;;;
2023/05/25 07:03:04;;;;;;;4.1;2.8;;;;;;;23.13;46.43652;939.8025;;;;
2023/05/25 07:05:32;;;;;;;4.8;2.7;;;;;;;22.77;46.80957;939.795;;;;
2023/05/25 07:07:57;;;;;;;3.3;2.5;;;;;;;23.61;44.91016;939.783;;;;
2023/05/25 07:10:27;;;;;;;3.5;2.8;;;;;;;23;46.9873;939.7329;;;;
2023/05/25 07:12:55;;;;;;;3.2;2.9;;;;;;;22.3;47.32324;939.7586;;;;
2023/05/25 07:15:22;;;;;;;3.9;2.4;;;;;;;22.07;49.20996;939.783;;;;
2023/05/25 07:17:50;;;;;;;3;2.5;;;;;;;20.83;52.1582;939.7562;;;;
2023/05/25 07:20:15;;;;;;;2.9;2.3;;;;;;;21.2;51.26563;939.7357;;;;
2023/05/25 07:22:45;;;;;;;3;2.2;;;;;;;21.21;51.8877;939.7894;;;;
2023/05/25 07:25:10;;;;;;;2.4;2.1;;;;;;;22.93;46.9209;939.8337;;;;
2023/05/25 07:27:41;;;;;;;2.7;2;;;;;;;21.68;48.72168;939.8195;;;;
2023/05/25 07:30:11;;;;;;;2.4;1.9;;;;;;;23.72;47.94434;939.8262;;;;
2023/05/25 07:32:40;;;;;;;2.6;2.3;;;;;;;23.62;49.66309;939.829;;;;
2023/05/25 07:35:05;;;;;;;2.4;1.8;;;;;;;23.95;46.51172;939.8058;;;;
2023/05/25 07:37:34;;;;;;;4.2;2.8;;;;;;;22.88;47.80762;939.6692;;;;
2023/05/25 07:40:04;;;;;;;2.8;2.2;;;;;;;24.33;44.79395;939.7865;;;;
2023/05/25 07:42:33;;;;;;;1.7;1.6;;;;;;;23.62;47.06348;939.8444;;;;
2023/05/25 07:44:56;;;;;;;1.9;1.7;;;;;;;24.19;44.98047;939.7664;;;;
2023/05/25 07:47:25;;;;;;;2.5;2.3;;;;;;;24.26;44.85742;939.8128;;;;
2023/05/25 07:49:55;;;;;;;1.7;1.6;;;;;;;25.17;45.13867;939.7747;;;;
2023/05/25 07:52:20;;;;;;;2.7;1.8;;;;;;;25.92;42.4707;939.8501;;;;
2023/05/25 07:54:47;;;;;;;1.8;1.5;;;;;;;25.04;42.22168;939.8833;;;;
2023/05/25 07:57:12;;;;;;;1.5;1.4;;;;;;;24.96;42.66211;939.8797;;;;
2023/05/25 07:59:38;;;;;;;1.8;1.5;;;;;;;25.24;41.79199;939.8878;;;;
2023/05/25 08:02:03;;;;;;;1.4;1.3;;;;;;;25.03;42.89355;939.86;;;;
2023/05/25 08:04:32;;;;;;;2.2;1.5;;;;;;;26.07;40.00195;939.8416;;;;
2023/05/25 08:06:57;;;;;;;2.4;1.5;;;;;;;23.22;45.77637;939.9875;;;;
2023/05/25 08:09:23;;;;;;;1.9;1.7;;;;;;;24.97;47.4668;939.8914;;;;
2023/05/25 08:11:48;;;;;;;2.3;2;;;;;;;27.4;41.91113;939.9423;;;;
2023/05/25 08:14:13;;;;;;;3;1.7;;;;;;;29.19;37.24316;939.8734;;;;
2023/05/25 08:16:40;;;;;;;1.7;1.6;;;;;;;29.28;38.3584;939.8847;;;;
2023/05/25 08:19:05;;;;;;;2.4;1.7;;;;;;;29.36;37.05469;939.9141;;;;
2023/05/25 08:21:33;;;;;;;3.6;2.4;;;;;;;27.15;42.58789;939.9266;;;;
2023/05/25 08:23:56;;;;;;;2.7;2.1;;;;;;;27.08;40.01953;939.9597;;;;
2023/05/25 08:26:24;;;;;;;3.1;2.5;;;;;;;26.28;44.12598;939.9557;;;;
2023/05/25 08:28:49;;;;;;;2.7;2.2;;;;;;;26.62;44.26563;940.0237;;;;
2023/05/25 08:31:14;;;;;;;2.7;2.5;;;;;;;27.68;41.78223;940.0298;;;;
2023/05/25 08:33:39;;;;;;;2.5;2.3;;;;;;;27.86;41.81152;940.025;;;;
2023/05/25 08:36:08;;;;;;;3.5;2.8;;;;;;;28.63;39.1709;940.031;;;;
2023/05/25 08:38:32;;;;;;;3.8;2.6;;;;;;;26.26;43.55664;939.9998;;;;
2023/05/25 08:41:00;;;;;;;2.8;2.3;;;;;;;27.99;38.42676;940.0728;;;;
2023/05/25 08:43:25;;;;;;;3.2;2.9;;;;;;;29.14;37.2627;940.0757;;;;
2023/05/25 08:45:54;;;;;;;4.7;2.6;;;;;;;27.47;40.09082;940.0876;;;;
2023/05/25 08:48:25;;;;;;;3.4;3;;;;;;;25.9;45.60254;940.0678;;;;
2023/05/25 08:50:50;;;;;;;3.7;2.6;;;;;;;25.11;46.18164;940.1255;;;;
2023/05/25 08:53:17;;;;;;;5.5;3.2;;;;;;;25.69;45.66309;940.1738;;;;
2023/05/25 08:55:42;;;;;;;4.9;3.5;;;;;;;27.25;42.5498;940.1408;;;;
2023/05/25 08:58:08;;;;;;;3.9;3;;;;;;;26.29;45.78516;940.1845;;;;
2023/05/25 09:00:33;;;;;;;5.9;3.3;;;;;;;26.12;45.4707;940.2122;;;;
2023/05/25 09:02:58;;;;;;;3.4;3.1;;;;;;;27.71;40.20703;940.2842;;;;
2023/05/25 09:05:23;;;;;;;4.3;3.2;;;;;;;27.54;40.34668;940.2239;;;;
2023/05/25 09:07:53;;;;;;;3.8;3.2;;;;;;;28.31;39.85645;940.262;;;;
2023/05/25 09:10:17;;;;;;;3.4;3.1;;;;;;;28.2;40.17969;940.212;;;;
2023/05/25 09:12:46;;;;;;;3.5;3.2;;;;;;;27.16;42.54102;940.1789;;;;
2023/05/25 09:15:11;;;;;;;3.3;3;;;;;;;27;42.35938;940.1853;;;;
2023/05/25 09:17:36;;;;;;;3.8;3;;;;;;;27.22;41.84766;940.1803;;;;
2023/05/25 09:20:04;;;;;;;2.6;2.4;;;;;;;27.08;42.43848;940.2181;;;;
2023/05/25 09:22:29;;;;;;;4.5;3.6;;;;;;;27.47;41.84668;940.1671;;;;
2023/05/25 09:24:54;;;;;;;4.8;3.4;;;;;;;26.58;45.26855;940.1375;;;;
2023/05/25 09:27:20;;;;;;;3.3;2.9;;;;;;;24.45;46.95117;940.2246;;;;
2023/05/25 09:29:46;;;;;;;3.6;3.3;;;;;;;22.9;54.15137;940.1688;;;;
2023/05/25 09:32:11;;;;;;;3.8;3.2;;;;;;;23.32;52.98047;940.2223;;;;
2023/05/25 09:34:36;;;;;;;5.9;3.6;;;;;;;21.98;54.71875;940.2039;;;;
2023/05/25 09:37:05;;;;;;;3.1;2.7;;;;;;;22.46;56.58496;940.2731;;;;
2023/05/25 09:39:30;;;;;;;5.5;2.9;;;;;;;23.45;54.38281;940.2488;;;;
2023/05/25 09:41:56;;;;;;;3.8;3.2;;;;;;;23.55;54.8418;940.1912;;;;
2023/05/25 09:44:21;;;;;;;4.5;3;;;;;;;23.73;52.02832;940.2567;;;;
2023/05/25 09:46:49;;;;;;;3.3;3;;;;;;;23.38;51.96484;940.2502;;;;
2023/05/25 09:49:15;;;;;;;3.2;2.8;;;;;;;22.94;56.57617;940.2397;;;;
2023/05/25 09:51:39;;;;;;;3.6;2.8;;;;;;;22.63;55.91504;940.2391;;;;
2023/05/25 09:54:04;;;;;;;5.4;2.9;;;;;;;22.9;55.35059;940.2352;;;;
2023/05/25 09:56:30;;;;;;;2.9;2.7;;;;;;;23.76;50.67969;940.1986;;;;
2023/05/25 09:58:55;;;;;;;2.9;2.4;;;;;;;23.87;53.0918;940.2184;;;;
2023/05/25 10:01:20;;;;;;;2.9;2.7;;;;;;;23.88;51.50488;940.1561;;;;
2023/05/25 10:03:55;;;;;;;4.1;2.9;;;;;;;22.85;56.96387;940.1298;;;;
2023/05/25 10:06:17;;;;;;;4;2.4;;;;;;;23.39;56.36328;940.1915;;;;
2023/05/25 10:08:47;;;;;;;2.9;2.6;;;;;;;23.19;54.05859;940.2154;;;;
2023/05/25 10:11:13;;;;;;;3.3;2.7;;;;;;;23.08;53.43457;940.187;;;;
2023/05/25 10:13:42;;;;;;;4.4;2.7;;;;;;;23.43;54.29688;940.2676;;;;
2023/05/25 10:16:07;;;;;;;3.2;2.5;;;;;;;23.56;53.99707;940.2244;;;;
2023/05/25 10:18:35;;;;;;;3;2.5;;;;;;;22.62;57.73242;940.2036;;;;
2023/05/25 10:21:02;;;;;;;4.9;2.6;;;;;;;22.56;56.93848;940.2808;;;;
2023/05/25 10:23:32;;;;;;;2.8;2.5;;;;;;;22.82;56.23242;940.3131;;;;
2023/05/25 10:26:00;;;;;;;5.6;3.2;;;;;;;23.36;53.23145;940.3633;;;;
2023/05/25 10:28:30;;;;;;;3;2.8;;;;;;;23.18;55.0791;940.3205;;;;
2023/05/25 10:30:54;;;;;;;4.4;2.8;;;;;;;22.22;61.35059;940.3289;;;;
2023/05/25 10:33:20;;;;;;;3;2.5;;;;;;;22.34;56.25293;940.3823;;;;
2023/05/25 10:35:45;;;;;;;3.8;2.7;;;;;;;22.18;57.0293;940.2361;;;;
2023/05/25 10:38:10;;;;;;;4.3;2.8;;;;;;;22.25;59.1748;940.3233;;;;
2023/05/25 10:40:35;;;;;;;3.2;2.9;;;;;;;22.57;56.83398;940.348;;;;
2023/05/25 10:43:04;;;;;;;6;2.9;;;;;;;22.27;59.77539;940.3519;;;;
2023/05/25 10:45:29;;;;;;;3.6;2.9;;;;;;;22.33;59.19531;940.375;;;;
2023/05/25 10:47:59;;;;;;;2.8;2.5;;;;;;;22.66;56.57617;940.3273;;;;
2023/05/25 10:50:28;;;;;;;3.1;2.8;;;;;;;22.73;57.04297;940.3705;;;;
2023/05/25 10:52:53;;;;;;;3.1;2.8;;;;;;;22.81;57.44043;940.3165;;;;
2023/05/25 10:55:21;;;;;;;5;3;;;;;;;22.9;56.44141;940.2776;;;;
2023/05/25 10:57:51;;;;;;;2.7;2.5;;;;;;;22.84;57.90234;940.2592;;;;
2023/05/25 11:00:20;;;;;;;5.5;2.5;;;;;;;22.8;58.26074;940.2601;;;;
2023/05/25 11:02:50;;;;;;;5.2;2.8;;;;;;;22.8;59.28223;940.2675;;;;
2023/05/25 11:05:15;;;;;;;2.7;2.5;;;;;;;22.41;60.28613;940.2531;;;;
2023/05/25 11:07:40;;;;;;;6;2.5;;;;;;;22.54;57.19336;940.2881;;;;
2023/05/25 11:10:05;;;;;;;3.1;2.8;;;;;;;22.5;56.94336;940.304;;;;
2023/05/25 11:12:30;;;;;;;3.6;2.5;;;;;;;21.99;62.53809;940.2318;;;;
2023/05/25 11:14:58;;;;;;;3.3;2.6;;;;;;;22.22;58.39648;940.2388;;;;
2023/05/25 11:17:24;;;;;;;3.7;2.9;;;;;;;21.9;61.1416;940.2194;;;;
2023/05/25 11:19:49;;;;;;;2.8;2.5;;;;;;;22.19;60.5498;940.2073;;;;
2023/05/25 11:22:15;;;;;;;4.2;2.7;;;;;;;21.71;63.07324;940.2037;;;;
2023/05/25 11:24:40;;;;;;;4.6;2.4;;;;;;;22.02;61.79199;940.238;;;;
2023/05/25 11:27:07;;;;;;;3.4;2.5;;;;;;;22.2;59.95313;940.2159;;;;
2023/05/25 11:29:34;;;;;;;2.6;2.4;;;;;;;22.28;61.08887;940.1909;;;;
2023/05/25 11:31:59;;;;;;;2.9;2.6;;;;;;;21.91;62.32813;940.2472;;;;
2023/05/25 11:34:25;;;;;;;3.3;2.6;;;;;;;22.14;60.22559;940.1473;;;;
2023/05/25 11:36:52;;;;;;;2.8;2.4;;;;;;;22.52;59.65625;940.1686;;;;
2023/05/25 11:39:14;;;;;;;3.6;2.7;;;;;;;22.68;59.36035;940.1166;;;;
2023/05/25 11:41:44;;;;;;;4.9;2.8;;;;;;;22.87;58.29199;940.1699;;;;
2023/05/25 11:44:09;;;;;;;3;2.5;;;;;;;22.87;57.98828;940.1609;;;;
2023/05/25 11:46:37;;;;;;;3.8;2.9;;;;;;;23;58.42773;940.2164;;;;
2023/05/25 11:49:00;;;;;;;6.6;3.1;;;;;;;22.48;61.09375;940.2283;;;;
2023/05/25 11:51:28;;;;;;;3.6;3.3;;;;;;;22.24;61.0498;940.2547;;;;
2023/05/25 11:53:53;;;;;;;3.2;2.9;;;;;;;22.37;61.66504;940.278;;;;
2023/05/25 11:56:21;;;;;;;7.7;3.3;;;;;;;22.29;62.88574;940.2433;;;;
2023/05/25 11:58:46;;;;;;;3.8;3.2;;;;;;;22.33;61.84668;940.2046;;;;
2023/05/25 12:01:13;;;;;;;5.4;3.2;;;;;;;22.49;60.40137;940.1983;;;;
2023/05/25 12:03:38;;;;;;;7.8;3.6;;;;;;;22.36;61.90918;940.2225;;;;
2023/05/25 12:06:04;;;;;;;6.6;3.9;;;;;;;22.3;62.28809;940.1131;;;;
2023/05/25 12:08:31;;;;;;;11.9;5.3;;;;;;;22.02;62.64746;940.1157;;;;
2023/05/25 12:10:56;;;;;;;6.8;4;;;;;;;22.06;63.68555;940.1004;;;;
2023/05/25 12:13:22;;;;;;;7.6;3.4;;;;;;;22.25;61.84863;940.1157;;;;
2023/05/25 12:15:48;;;;;;;5.9;4.2;;;;;;;22.52;62.66016;940.0614;;;;
2023/05/25 12:18:15;;;;;;;4.4;3.4;;;;;;;22.23;59.79395;940.035;;;;
2023/05/25 12:20:40;;;;;;;8.4;3.8;;;;;;;22.09;63.26855;939.9704;;;;
2023/05/25 12:23:05;;;;;;;5.9;3.5;;;;;;;22.1;64.5;939.9749;;;;
2023/05/25 12:25:32;;;;;;;7.6;3.9;;;;;;;22.22;61.56152;939.9882;;;;
2023/05/25 12:27:57;;;;;;;4.4;3.2;;;;;;;22.44;62.19141;939.9343;;;;
2023/05/25 12:30:25;;;;;;;6.7;4.5;;;;;;;22.31;62.01953;939.9424;;;;
2023/05/25 12:32:50;;;;;;;5.6;3.7;;;;;;;22.15;65.02246;939.8884;;;;
2023/05/25 12:35:20;;;;;;;6.1;3.8;;;;;;;21.99;63.27637;939.8904;;;;
2023/05/25 12:37:45;;;;;;;6.1;4.4;;;;;;;21.75;65.87598;939.8759;;;;
2023/05/25 12:40:11;;;;;;;4.6;3.9;;;;;;;21.75;65.67676;939.8564;;;;
2023/05/25 12:42:39;;;;;;;5.7;3.8;;;;;;;21.97;63.69629;939.9178;;;;
2023/05/25 12:45:04;;;;;;;4.2;3.5;;;;;;;22.11;64.56055;939.8562;;;;
2023/05/25 12:47:34;;;;;;;3.9;3.5;;;;;;;22.08;62.57324;939.8647;;;;
2023/05/25 12:50:02;;;;;;;7.5;4.1;;;;;;;21.87;66.80859;939.8448;;;;
2023/05/25 12:52:27;;;;;;;5.2;3.8;;;;;;;22;64.56641;939.9015;;;;
2023/05/25 12:54:56;;;;;;;5.8;4.2;;;;;;;22.06;63.88477;939.9308;;;;
2023/05/25 12:57:21;;;;;;;5.3;4;;;;;;;21.86;64.34668;939.8231;;;;
2023/05/25 12:59:46;;;;;;;6.7;4.6;;;;;;;22.03;65.19141;939.9066;;;;
2023/05/25 13:02:13;;;;;;;8.7;4.4;;;;;;;21.86;65.94043;939.8119;;;;
2023/05/25 13:04:38;;;;;;;7.7;4.3;;;;;;;21.95;64.77051;939.9339;;;;
2023/05/25 13:07:05;;;;;;;5.6;4.5;;;;;;;21.84;64.40332;939.9047;;;;
2023/05/25 13:09:30;;;;;;;6.8;4.6;;;;;;;21.61;66.91016;939.9375;;;;
2023/05/25 13:11:58;;;;;;;6;4.8;;;;;;;21.96;64.41016;939.9221;;;;
2023/05/25 13:14:23;;;;;;;5.7;5;;;;;;;22.16;65.75;939.8514;;;;
2023/05/25 13:16:49;;;;;;;5.8;5.2;;;;;;;22.04;63.31934;939.8569;;;;
2023/05/25 13:19:14;;;;;;;9.2;5.6;;;;;;;21.95;63.1416;939.835;;;;
2023/05/25 13:21:44;;;;;;;8.2;5.9;;;;;;;21.83;64.55566;939.9764;;;;
2023/05/25 13:24:11;;;;;;;6.8;5.6;;;;;;;21.71;65.42676;939.9071;;;;
2023/05/25 13:26:36;;;;;;;7.2;6.1;;;;;;;21.57;65.26563;939.911;;;;
2023/05/25 13:29:04;;;;;;;7.9;5.8;;;;;;;21.74;64.4707;939.8517;;;;
2023/05/25 13:31:29;;;;;;;7;6;;;;;;;21.58;65.64258;939.8044;;;;
2023/05/25 13:33:55;;;;;;;8.1;5.5;;;;;;;21.63;63.8916;939.8301;;;;
2023/05/25 13:36:20;;;;;;;8.6;5.7;;;;;;;21.77;64.55664;939.7803;;;;
2023/05/25 13:38:48;;;;;;;12.5;6.4;;;;;;;21.58;65.2793;939.9091;;;;
2023/05/25 13:41:13;;;;;;;7.3;6.6;;;;;;;21.56;64.94824;939.802;;;;
2023/05/25 13:43:40;;;;;;;10.1;6.8;;;;;;;21.71;65.40332;939.8488;;;;
2023/05/25 13:46:04;;;;;;;7;6.2;;;;;;;21.58;64.71777;939.8028;;;;
2023/05/25 13:48:30;;;;;;;8;6.8;;;;;;;21.42;64.77441;939.8699;;;;
2023/05/25 13:50:54;;;;;;;8.1;6.4;;;;;;;21.12;65.87695;939.8367;;;;
2023/05/25 13:53:21;;;;;;;9.2;6.4;;;;;;;21.11;66.6709;939.794;;;;
2023/05/25 13:55:46;;;;;;;10.1;7.2;;;;;;;21.09;68.1543;939.8384;;;;
2023/05/25 13:58:13;;;;;;;8.3;6.9;;;;;;;21.17;69.27832;939.7778;;;;
2023/05/25 14:00:39;;;;;;;11.2;7.1;;;;;;;20.82;70.13574;939.7226;;;;
2023/05/25 14:03:04;;;;;;;11.7;6.9;;;;;;;20.68;70.11328;939.9042;;;;
2023/05/25 14:05:30;;;;;;;10.7;7.4;;;;;;;20.83;67.24902;939.9369;;;;
2023/05/25 14:07:57;;;;;;;8.6;6.7;;;;;;;20.9;67.65723;939.8645;;;;
2023/05/25 14:10:21;;;;;;;8;7.1;;;;;;;20.87;69.71094;939.9203;;;;
2023/05/25 14:12:51;;;;;;;9.2;7.2;;;;;;;20.81;69.89941;939.9468;;;;
2023/05/25 14:15:21;;;;;;;10.6;7.8;;;;;;;20.84;68.24414;939.9342;;;;
2023/05/25 14:17:46;;;;;;;9.2;6.7;;;;;;;20.89;67.39746;939.8511;;;;
2023/05/25 14:20:24;;;;;;;10.6;7;;;;;;;20.86;68.94824;939.9045;;;;
2023/05/25 14:22:45;;;;;;;10.4;7.3;;;;;;;21;68.03516;939.925;;;;
2023/05/25 14:25:15;;;;;;;9.7;6.8;;;;;;;21.07;66.6543;939.9596;;;;
2023/05/25 14:27:43;;;;;;;9.9;7.5;;;;;;;20.86;68.07129;939.9523;;;;
2023/05/25 14:30:08;;;;;;;10.2;7.1;;;;;;;20.86;66.67969;939.962;;;;
2023/05/25 14:32:34;;;;;;;9.5;6.7;;;;;;;20.79;67.3252;940.0234;;;;
2023/05/25 14:34:59;;;;;;;9.4;6.6;;;;;;;20.71;67.5918;940.0281;;;;
2023/05/25 14:37:24;;;;;;;10.3;7.6;;;;;;;20.64;67.8623;940.0664;;;;
2023/05/25 14:39:49;;;;;;;10.6;6.8;;;;;;;20.53;68.83887;940.0714;;;;
2023/05/25 14:42:15;;;;;;;8.7;7;;;;;;;20.55;69.0166;940.137;;;;
2023/05/25 14:44:43;;;;;;;10.7;7.8;;;;;;;20.5;68.00488;940.1481;;;;
2023/05/25 14:47:08;;;;;;;11.3;7.7;;;;;;;20.59;68.63867;940.1732;;;;
2023/05/25 14:49:34;;;;;;;8.7;7.1;;;;;;;20.71;68.00195;940.1955;;;;
2023/05/25 14:51:59;;;;;;;8.2;7;;;;;;;20.65;69.18555;940.2043;;;;
2023/05/25 14:54:25;;;;;;;9.5;6.9;;;;;;;20.72;68.03906;940.2092;;;;
2023/05/25 14:56:50;;;;;;;8.6;6.8;;;;;;;20.79;66.625;940.2256;;;;
2023/05/25 14:59:17;;;;;;;9.7;6.6;;;;;;;20.82;67.40039;940.2406;;;;
2023/05/25 15:01:42;;;;;;;9.5;7;;;;;;;20.71;67.61621;940.1688;;;;
2023/05/25 15:04:09;;;;;;;10.9;6.9;;;;;;;20.56;68.54102;940.2209;;;;
2023/05/25 15:06:42;;;;;;;10.4;7.1;;;;;;;20.26;69.77734;940.288;;;;
2023/05/25 15:09:12;;;;;;;9.6;7;;;;;;;20.16;69.00293;940.2495;;;;
2023/05/25 15:11:35;;;;;;;8;6.7;;;;;;;20.23;68.39551;940.3145;;;;
2023/05/25 15:14:03;;;;;;;10;6.6;;;;;;;20.31;68.28027;940.1993;;;;
2023/05/25 15:16:28;;;;;;;8.8;6.9;;;;;;;20.22;71.3457;940.2595;;;;
2023/05/25 15:18:53;;;;;;;8.7;7;;;;;;;20.26;70.02246;940.2581;;;;
2023/05/25 15:21:18;;;;;;;9.6;7.2;;;;;;;20.46;69.45801;940.2827;;;;
2023/05/25 15:23:47;;;;;;;9;6.9;;;;;;;20.35;68.95117;940.2427;;;;
2023/05/25 15:26:13;;;;;;;8.8;6.6;;;;;;;20.35;68.02832;940.2589;;;;
2023/05/25 15:28:39;;;;;;;8.4;6.5;;;;;;;20.36;68.38184;940.2927;;;;
2023/05/25 15:31:04;;;;;;;8.4;6.3;;;;;;;20.39;68.29102;940.3899;;;;